createdAt,value
2022-08-03T00:01:54.818Z,100633.34
2022-08-03T00:04:22.595Z,100631.72
2022-08-03T00:07:02.212Z,100624.22
2022-08-03T00:09:35.448Z,100631.31
2022-08-03T00:12:04.218Z,100624.91
2022-08-03T00:14:32.054Z,100628.09
2022-08-03T00:17:01.220Z,100626.50
2022-08-03T00:19:29.311Z,100620.06
2022-08-03T00:21:57.053Z,100625.78
2022-08-03T00:24:25.107Z,100625.28
2022-08-03T00:26:53.324Z,100625.88
2022-08-03T00:29:21.322Z,100620.75
2022-08-03T00:31:52.376Z,100624.84
2022-08-03T00:34:36.507Z,100618.13
2022-08-03T00:37:10.060Z,100613.28
2022-08-03T00:39:38.207Z,100615.78
2022-08-03T00:42:06.568Z,100614.50
2022-08-03T00:44:41.209Z,100618.28
2022-08-03T00:47:10.304Z,100610.66
2022-08-03T00:49:41.080Z,100610.19
2022-08-03T00:52:11.325Z,100603.25
2022-08-03T00:54:40.404Z,100609.53
2022-08-03T00:57:08.624Z,100602.81
2022-08-03T00:59:38.142Z,100603.41
2022-08-03T01:02:07.283Z,100608.59
2022-08-03T01:04:35.188Z,100598.09
2022-08-03T01:07:13.089Z,100597.50
2022-08-03T01:09:52.443Z,100593.22
2022-08-03T01:12:26.375Z,100594.88
2022-08-03T01:15:04.163Z,100592.25
2022-08-03T01:17:37.928Z,100591.47
2022-08-03T01:20:10.994Z,100590.44
2022-08-03T01:23:04.528Z,100598.03
2022-08-03T01:25:54.811Z,100594.31
2022-08-03T01:28:39.174Z,100590.28
2022-08-03T01:31:11.623Z,100588.19
2022-08-03T01:33:51.069Z,100585.25
2022-08-03T01:36:23.410Z,100583.41
2022-08-03T01:38:55.253Z,100582.13
2022-08-03T01:41:27.859Z,100590.00
2022-08-03T01:44:30.011Z,100579.75
2022-08-03T01:46:50.165Z,100577.03
2022-08-03T01:49:19.128Z,100573.34
2022-08-03T01:52:04.335Z,100572.81
2022-08-03T01:54:35.874Z,100572.81
2022-08-03T01:57:05.294Z,100568.00
2022-08-03T01:59:36.730Z,100568.28
2022-08-03T02:02:27.741Z,100574.56
2022-08-03T02:04:58.686Z,100569.75
2022-08-03T02:07:28.422Z,100570.31
2022-08-03T02:09:58.269Z,100576.25
2022-08-03T02:12:29.971Z,100569.84
2022-08-03T02:14:59.980Z,100568.00
2022-08-03T02:17:38.986Z,100560.16
2022-08-03T02:20:09.505Z,100560.75
2022-08-03T02:22:40.623Z,100561.34
2022-08-03T02:25:09.865Z,100559.22
2022-08-03T02:27:43.751Z,100565.69
2022-08-03T02:30:13.514Z,100566.28
2022-08-03T02:32:47.253Z,100563.88
2022-08-03T02:35:18.135Z,100553.41
2022-08-03T02:37:50.132Z,100555.81
2022-08-03T02:40:20.176Z,100561.00
2022-08-03T02:42:50.786Z,100561.56
2022-08-03T02:45:21.298Z,100566.75
2022-08-03T02:47:54.942Z,100556.22
2022-08-03T02:50:24.866Z,100556.81
2022-08-03T02:52:53.975Z,100558.19
2022-08-03T02:55:23.688Z,100557.69
2022-08-03T02:57:52.834Z,100550.94
2022-08-03T03:00:27.861Z,100544.78
2022-08-03T03:03:00.922Z,100548.84
2022-08-03T03:05:55.376Z,100543.47
2022-08-03T03:08:25.919Z,100551.56
2022-08-03T03:10:56.711Z,100549.75
2022-08-03T03:13:25.466Z,100540.31
2022-08-03T03:15:54.723Z,100546.81
2022-08-03T03:18:26.611Z,100549.53
2022-08-03T03:20:55.135Z,100546.34
2022-08-03T03:23:24.587Z,100542.84
2022-08-03T03:25:54.926Z,100541.81
2022-08-03T03:28:23.350Z,100540.78
2022-08-03T03:30:53.514Z,100533.25
2022-08-03T03:33:23.599Z,100535.44
2022-08-03T03:35:53.017Z,100541.09
2022-08-03T03:38:21.820Z,100528.22
2022-08-03T03:40:49.945Z,100540.34
2022-08-03T03:43:18.867Z,100533.63
2022-08-03T03:45:47.897Z,100536.06
2022-08-03T03:48:16.484Z,100532.06
2022-08-03T03:50:46.562Z,100532.34
2022-08-03T03:53:16.527Z,100530.47
2022-08-03T03:56:02.087Z,100538.06
2022-08-03T03:58:33.037Z,100535.66
2022-08-03T04:01:01.252Z,100542.41
2022-08-03T04:03:29.281Z,100535.69
2022-08-03T04:06:19.598Z,100544.06
2022-08-03T04:09:07.229Z,100540.03
2022-08-03T04:11:44.530Z,100537.59
2022-08-03T04:36:58.734Z,100560.38
2022-08-03T04:39:28.869Z,100557.72
2022-08-03T04:42:08.108Z,100552.66
2022-08-03T04:44:44.324Z,100567.19
2022-08-03T04:47:13.580Z,100567.44
2022-08-03T04:49:41.707Z,100569.63
2022-08-03T04:52:17.732Z,100568.53
2022-08-03T04:54:50.861Z,100569.13
2022-08-03T04:57:23.287Z,100565.31
2022-08-03T05:00:01.423Z,100571.22
2022-08-03T05:02:32.792Z,100575.03
2022-08-03T05:05:01.355Z,100585.81
2022-08-03T05:07:36.053Z,100569.38
2022-08-03T05:10:15.000Z,100586.59
2022-08-03T05:12:48.583Z,100579.31
2022-08-03T05:15:20.152Z,100578.22
2022-08-03T05:17:54.318Z,100583.34
2022-08-03T05:20:27.730Z,100580.66
2022-08-03T05:23:03.732Z,100576.59
2022-08-03T05:25:39.355Z,100583.59
2022-08-03T07:29:15.094Z,100625.63
2022-08-03T07:31:43.318Z,100624.84
2022-08-03T07:34:11.629Z,100633.75
2022-08-03T07:36:41.094Z,100627.50
2022-08-03T07:39:15.968Z,100634.31
2022-08-03T07:41:53.849Z,100623.41
2022-08-03T07:44:23.794Z,100637.91
2022-08-03T07:46:52.353Z,100633.34
2022-08-03T07:49:23.727Z,100631.19
2022-08-03T07:52:12.990Z,100634.75
2022-08-03T07:54:40.971Z,100629.56
2022-08-03T07:57:11.855Z,100635.84
2022-08-03T07:59:56.520Z,100639.47
2022-08-03T08:02:31.978Z,100635.97
2022-08-03T08:05:06.120Z,100619.25
2022-08-03T08:07:34.518Z,100618.78
2022-08-03T08:10:04.336Z,100624.28
2022-08-03T08:12:32.916Z,100624.28
2022-08-03T08:15:04.174Z,100620.00
2022-08-03T08:17:34.814Z,100617.81
2022-08-03T08:20:02.893Z,100617.22
2022-08-03T08:22:31.793Z,100611.47
2022-08-03T08:25:01.859Z,100609.75
2022-08-03T08:28:30.388Z,100605.59
2022-08-03T08:30:22.602Z,100607.88
2022-08-03T08:32:52.509Z,100607.25
2022-08-03T08:35:20.449Z,100607.22
2022-08-03T08:37:52.153Z,100606.59
2022-08-03T08:40:26.321Z,100598.09
2022-08-03T08:42:59.332Z,100604.63
2022-08-03T08:45:33.205Z,100603.84
2022-08-03T08:48:09.305Z,100599.97
2022-08-03T08:50:42.634Z,100597.22
2022-08-03T08:53:19.834Z,100603.59
2022-08-03T08:55:59.305Z,100603.69
2022-08-03T08:58:37.552Z,100600.28
2022-08-03T09:01:08.868Z,100601.09
2022-08-03T09:03:38.825Z,100599.56
2022-08-03T09:06:10.467Z,100603.06
2022-08-03T09:08:40.870Z,100605.59
2022-08-03T09:11:14.354Z,100603.94
2022-08-03T09:25:22.771Z,100600.44
2022-08-03T09:27:51.945Z,100604.59
2022-08-03T09:30:34.205Z,100605.19
2022-08-03T09:33:03.794Z,100599.50
2022-08-03T09:38:29.759Z,100603.91
2022-08-03T09:41:04.317Z,100596.31
2022-08-03T09:43:54.800Z,100599.63
2022-08-03T09:46:26.338Z,100601.69
2022-08-03T09:49:12.904Z,100596.78
2022-08-03T09:52:32.975Z,100590.00
2022-08-03T09:54:41.461Z,100590.25
2022-08-03T09:57:28.923Z,100592.88
2022-08-03T10:00:15.605Z,100592.31
2022-08-03T10:03:14.250Z,100598.06
2022-08-03T13:14:50.504Z,100471.41
2022-08-03T13:17:19.021Z,100475.22
2022-08-03T13:19:47.938Z,100475.50
2022-08-03T13:22:17.834Z,100467.16
2022-08-03T13:24:47.135Z,100463.22
2022-08-03T13:28:03.589Z,100458.16
2022-08-03T13:30:29.685Z,100453.09
2022-08-03T13:33:01.596Z,100455.13
2022-08-03T13:35:29.869Z,100448.47
2022-08-03T13:37:58.125Z,100454.44
2022-08-03T13:40:30.626Z,100453.28
2022-08-03T13:43:03.252Z,100452.13
2022-08-03T13:45:33.394Z,100445.47
2022-08-03T13:48:02.455Z,100449.81
2022-08-03T13:50:32.066Z,100444.75
2022-08-03T13:53:00.886Z,100436.94
2022-08-03T13:55:29.510Z,100444.47
2022-08-03T13:58:05.417Z,100438.97
2022-08-03T14:00:42.076Z,100430.72
2022-08-03T14:03:15.040Z,100437.81
2022-08-03T14:05:45.898Z,100436.63
2022-08-03T14:08:14.935Z,100430.34
2022-08-03T14:10:45.129Z,100423.66
2022-08-03T14:13:17.961Z,100429.94
2022-08-03T14:15:49.962Z,100426.41
2022-08-03T14:18:27.961Z,100416.59
2022-08-03T14:21:04.976Z,100422.06
2022-08-03T14:23:35.756Z,100417.00
2022-08-03T14:26:04.108Z,100413.88
2022-08-03T14:28:32.890Z,100417.00
2022-08-03T14:31:04.207Z,100422.91
2022-08-03T14:33:37.062Z,100404.78
2022-08-03T14:36:06.175Z,100411.50
2022-08-03T14:38:34.715Z,100412.69
2022-08-03T14:41:03.390Z,100408.69
2022-08-03T14:43:34.253Z,100403.94
2022-08-03T14:46:04.990Z,100390.94
2022-08-03T14:50:30.725Z,100397.47
2022-08-03T14:51:23.141Z,100381.00
2022-08-03T14:53:51.493Z,100391.19
2022-08-03T14:56:20.089Z,100378.28
2022-08-03T14:58:48.810Z,100391.31
2022-08-03T15:02:03.459Z,100385.06
2022-08-03T15:04:07.770Z,100373.38
2022-08-03T15:06:36.592Z,100370.25
2022-08-03T15:09:22.566Z,100379.66
2022-08-03T15:11:52.498Z,100377.00
2022-08-03T15:14:28.257Z,100373.47
2022-08-03T15:17:02.623Z,100370.34
2022-08-03T15:20:00.881Z,100368.00
2022-08-03T15:22:25.247Z,100359.78
2022-08-03T15:25:02.786Z,100362.53
2022-08-03T15:27:31.095Z,100345.72
2022-08-03T15:30:05.255Z,100352.00
2022-08-03T15:32:40.032Z,100343.75
2022-08-03T15:35:09.243Z,100339.84
2022-08-03T15:37:37.892Z,100337.09
2022-08-03T15:40:08.076Z,100337.50
2022-08-03T15:42:36.437Z,100335.22
2022-08-03T15:45:05.536Z,100330.53
2022-08-03T15:47:33.896Z,100324.28
2022-08-03T15:50:09.251Z,100337.66
2022-08-03T15:52:38.325Z,100325.03
2022-08-03T15:55:07.436Z,100320.44
2022-08-03T15:59:10.686Z,100324.00
2022-08-03T16:00:33.290Z,100320.09
2022-08-03T16:03:02.570Z,100323.63
2022-08-03T16:05:32.956Z,100321.28
2022-08-03T16:08:03.452Z,100318.13
2022-08-03T16:10:33.879Z,100319.72
2022-08-03T16:13:02.850Z,100312.25
2022-08-03T16:15:31.396Z,100311.47
2022-08-03T16:17:59.906Z,100312.63
2022-08-03T16:20:33.988Z,100310.69
2022-08-03T16:23:11.325Z,100314.22
2022-08-03T16:25:40.696Z,100311.47
2022-08-03T16:28:13.906Z,100303.97
2022-08-03T16:30:43.902Z,100301.66
2022-08-03T16:33:17.289Z,100303.63
2022-08-03T16:35:46.392Z,100303.97
2022-08-03T16:38:19.054Z,100305.56
2022-08-03T16:40:51.822Z,100301.22
2022-08-03T16:43:22.421Z,100306.28
2022-08-03T16:45:51.067Z,100301.97
2022-08-03T16:48:20.248Z,100298.44
2022-08-03T16:50:49.227Z,100297.63
2022-08-03T16:53:51.665Z,100305.06
2022-08-03T16:56:10.640Z,100303.47
2022-08-03T16:58:42.630Z,100299.94
2022-08-03T17:01:21.678Z,100300.31
2022-08-03T17:04:02.503Z,100292.81
2022-08-03T17:06:36.262Z,100298.66
2022-08-03T17:09:08.859Z,100296.63
2022-08-03T17:11:43.913Z,100296.59
2022-08-03T17:14:17.115Z,100293.78
2022-08-03T17:16:53.013Z,100300.00
2022-08-03T17:19:26.512Z,100292.91
2022-08-03T17:22:01.716Z,100298.00
2022-08-03T17:24:40.782Z,100296.72
2022-08-03T17:28:42.167Z,100300.22
2022-08-03T17:30:04.079Z,100302.53
2022-08-03T17:32:42.490Z,100299.69
2022-08-03T17:35:12.090Z,100292.94
2022-08-03T17:37:58.387Z,100295.63
2022-08-03T17:40:33.443Z,100296.34
2022-08-03T17:44:13.678Z,100294.69
2022-08-03T17:45:54.967Z,100290.28
2022-08-03T17:48:25.183Z,100296.84
2022-08-03T17:50:58.822Z,100295.19
2022-08-03T17:53:30.872Z,100298.22
2022-08-03T17:56:38.526Z,100297.72
2022-08-03T17:59:15.743Z,100296.84
2022-08-03T18:02:15.251Z,100297.50
2022-08-03T18:05:00.908Z,100296.19
2022-08-03T18:07:41.342Z,100299.13
2022-08-03T18:10:15.572Z,100296.25
2022-08-03T18:12:58.473Z,100302.44
2022-08-03T18:15:34.100Z,100292.94
2022-08-03T18:18:10.904Z,100302.59
2022-08-03T18:20:45.831Z,100298.47
2022-08-03T18:23:24.771Z,100296.81
2022-08-03T18:26:12.315Z,100296.28
2022-08-03T18:32:06.014Z,100303.47
2022-08-03T19:34:25.238Z,100317.66
2022-08-03T19:36:53.691Z,100315.50
2022-08-03T19:39:22.658Z,100316.88
2022-08-03T19:41:59.502Z,100324.50
2022-08-03T19:44:38.947Z,100317.34
2022-08-03T19:47:17.144Z,100313.25
2022-08-03T19:50:06.145Z,100322.47
2022-08-03T19:52:39.181Z,100325.00
2022-08-03T19:55:12.501Z,100332.25
2022-08-03T19:57:43.302Z,100323.50
2022-08-03T20:00:13.934Z,100328.38
2022-08-03T20:05:44.936Z,100322.25
2022-08-03T20:08:21.479Z,100322.81
2022-08-03T20:10:51.420Z,100326.78
2022-08-03T20:13:20.517Z,100329.16
2022-08-03T20:15:48.554Z,100334.00
2022-08-03T20:18:21.470Z,100341.94
2022-08-03T20:20:53.589Z,100339.44
2022-08-03T20:23:22.716Z,100331.00
2022-08-03T20:25:58.504Z,100351.56
2022-08-03T20:28:32.186Z,100340.22
2022-08-03T20:31:00.302Z,100341.53
2022-08-03T20:33:46.443Z,100351.19
2022-08-03T20:36:19.134Z,100346.41
2022-08-03T20:38:48.155Z,100343.09
2022-08-03T20:41:16.610Z,100338.31
2022-08-03T20:43:45.168Z,100351.81
2022-08-03T20:46:32.056Z,100340.44
2022-08-03T20:49:04.494Z,100343.84
2022-08-03T20:51:50.083Z,100348.69
2022-08-03T20:54:29.644Z,100354.00
2022-08-03T20:57:00.153Z,100347.59
2022-08-03T20:59:35.074Z,100354.84
2022-08-03T21:02:19.865Z,100344.63
2022-08-03T21:04:58.578Z,100349.94
2022-08-03T21:08:04.402Z,100352.22
2022-08-03T21:10:19.971Z,100353.19
2022-08-03T21:13:03.417Z,100331.00
2022-08-03T21:13:15.237Z,100348.41
2022-08-03T21:16:06.861Z,100336.91
2022-08-03T21:18:38.658Z,100333.72
2022-08-03T21:21:08.750Z,100340.16
2022-08-03T21:23:48.206Z,100337.31
2022-08-03T21:26:18.941Z,100342.16
2022-08-03T21:28:47.820Z,100337.34
2022-08-03T21:31:21.364Z,100338.03
2022-08-03T21:33:55.542Z,100341.72
2022-08-03T21:36:23.618Z,100338.38
2022-08-03T21:38:56.278Z,100324.97
2022-08-03T21:41:25.373Z,100341.31
2022-08-03T21:43:54.112Z,100332.97
2022-08-03T21:46:23.306Z,100337.16
2022-08-03T21:50:04.243Z,100334.44
2022-08-03T21:51:50.680Z,100325.34
2022-08-03T21:54:21.979Z,100333.81
2022-08-03T21:56:52.980Z,100327.44
2022-08-03T21:59:24.206Z,100318.66
2022-08-03T22:01:55.456Z,100318.53
2022-08-03T22:04:45.922Z,100328.13
2022-08-03T22:07:16.870Z,100320.63
2022-08-03T22:09:50.100Z,100322.09
2022-08-03T22:12:21.975Z,100307.53
2022-08-03T22:14:50.268Z,100314.59
2022-08-03T22:17:55.758Z,100308.19
2022-08-03T22:20:19.502Z,100307.72
2022-08-03T22:22:54.944Z,100311.91
2022-08-03T22:25:28.705Z,100302.00
2022-08-03T22:27:58.673Z,100299.91
2022-08-03T22:30:26.534Z,100309.19
2022-08-03T22:32:56.182Z,100309.88
2022-08-03T22:35:26.228Z,100316.75
2022-08-03T22:37:56.009Z,100318.22
2022-08-03T22:40:25.560Z,100304.13
2022-08-03T22:42:53.401Z,100307.81
2022-08-03T22:46:05.959Z,100302.25
2022-08-03T22:48:10.042Z,100308.78
2022-08-03T22:50:38.253Z,100298.56
2022-08-03T22:53:07.824Z,100298.88
2022-08-03T22:55:38.292Z,100295.69
2022-08-03T22:58:06.070Z,100293.94
2022-08-03T23:00:34.076Z,100293.78
2022-08-03T23:03:07.623Z,100297.97
2022-08-03T23:06:00.839Z,100294.28
2022-08-03T23:08:26.560Z,100289.16
2022-08-03T23:11:03.303Z,100290.91
2022-08-03T23:13:33.007Z,100293.00
2022-08-03T23:16:01.915Z,100291.41
2022-08-03T23:18:35.376Z,100290.44
2022-08-03T23:21:10.943Z,100292.69
2022-08-03T23:23:44.558Z,100297.47
2022-08-03T23:26:14.839Z,100296.22
2022-08-03T23:28:46.487Z,100298.78
2022-08-03T23:31:16.135Z,100295.88
2022-08-03T23:33:45.877Z,100300.41
2022-08-03T23:36:30.238Z,100298.31
2022-08-03T23:39:02.991Z,100297.84
2022-08-03T23:41:34.274Z,100288.41
2022-08-03T23:44:04.355Z,100286.63
2022-08-03T23:46:33.032Z,100288.88
2022-08-03T23:49:01.629Z,100284.88
2022-08-03T23:51:43.199Z,100288.72
2022-08-03T23:54:23.891Z,100287.41
2022-08-03T23:56:59.324Z,100282.13
2022-08-03T23:59:38.432Z,100282.13
